Time;durP1;ratioP1;P1;durP2;ratioP2;P2;SDS_P1;SDS_P2;PMS_P1;PMS_P2;Temp;Humidity;BMP_temperature;BMP_pressure;BME280_temperature;BME280_humidity;BME280_pressure;Samples;Min_cycle;Max_cycle;Signal;HPM_P1;HPM_P2
2022/03/01 00:00:23;;;;;;;16.23;7.03;;;5.20;99.90;;;;;;5031701;28;20574;-39
2022/03/01 00:02:48;;;;;;;20.33;7.35;;;5.10;99.90;;;;;;5033772;28;20056;-30
2022/03/01 00:05:14;;;;;;;15.35;8.05;;;5.10;99.90;;;;;;5033820;28;20028;-31
2022/03/01 00:07:40;;;;;;;20.67;8.02;;;5.10;99.90;;;;;;5019888;28;20032;-32
2022/03/01 00:10:06;;;;;;;15.20;7.50;;;5.00;99.90;;;;;;5019405;28;20022;-33
2022/03/01 00:12:32;;;;;;;22.27;8.27;;;4.90;99.90;;;;;;5035646;28;20036;-34
2022/03/01 00:14:58;;;;;;;22.48;7.72;;;4.80;99.90;;;;;;5032888;28;20478;-35
2022/03/01 00:17:24;;;;;;;19.10;8.07;;;4.80;99.90;;;;;;5023689;28;20025;-32
2022/03/01 00:19:50;;;;;;;19.13;8.23;;;4.80;99.90;;;;;;5020998;28;20026;-33
2022/03/01 00:22:16;;;;;;;18.38;7.50;;;4.80;99.90;;;;;;5017726;28;20489;-34
2022/03/01 00:24:41;;;;;;;19.80;8.30;;;4.90;99.90;;;;;;5038596;28;20057;-36
2022/03/01 00:27:07;;;;;;;15.95;7.00;;;4.90;99.90;;;;;;5033364;28;20045;-32
2022/03/01 00:29:33;;;;;;;18.45;8.30;;;4.90;99.90;;;;;;5017659;28;20022;-33
2022/03/01 00:31:58;;;;;;;18.92;7.85;;;4.80;99.90;;;;;;5028771;28;20017;-35
2022/03/01 00:34:24;;;;;;;18.90;7.70;;;4.90;99.90;;;;;;5038227;28;20108;-33
2022/03/01 00:36:49;;;;;;;15.80;8.35;;;4.80;99.90;;;;;;5029380;28;20076;-31
2022/03/01 00:39:15;;;;;;;15.00;7.00;;;4.80;99.90;;;;;;5038035;28;20029;-33
2022/03/01 00:41:41;;;;;;;21.23;7.82;;;4.80;99.90;;;;;;5033181;28;20113;-31
2022/03/01 00:44:06;;;;;;;18.27;7.97;;;4.70;99.90;;;;;;5030949;28;20025;-29
2022/03/01 00:46:32;;;;;;;15.75;7.65;;;4.70;99.90;;;;;;5033061;28;20025;-33
2022/03/01 00:48:58;;;;;;;15.77;7.78;;;4.70;99.90;;;;;;5040468;28;20048;-30
2022/03/01 00:51:25;;;;;;;18.23;7.72;;;4.70;99.90;;;;;;5048729;28;20039;-31
2022/03/01 00:53:51;;;;;;;16.33;8.65;;;4.70;99.90;;;;;;5041629;28;20044;-32
2022/03/01 00:56:17;;;;;;;14.70;7.65;;;4.70;99.90;;;;;;5052776;28;20021;-30
2022/03/01 00:58:42;;;;;;;22.00;8.20;;;4.70;99.90;;;;;;5040747;28;20024;-30
2022/03/01 01:01:08;;;;;;;17.08;8.00;;;4.70;99.90;;;;;;5042733;28;20497;-33
2022/03/01 01:03:34;;;;;;;13.73;6.88;;;4.70;99.90;;;;;;5050630;28;20032;-30
2022/03/01 01:05:59;;;;;;;17.08;7.45;;;4.70;99.90;;;;;;5052619;28;20031;-31
2022/03/01 01:08:25;;;;;;;15.20;8.32;;;4.80;99.90;;;;;;5035235;28;20132;-30
2022/03/01 01:10:50;;;;;;;20.42;7.43;;;4.80;99.90;;;;;;5039938;28;20108;-30
2022/03/01 01:13:16;;;;;;;18.65;8.05;;;4.90;99.90;;;;;;5035049;28;20127;-38
2022/03/01 01:15:43;;;;;;;15.10;6.82;;;4.90;99.90;;;;;;5033775;28;20481;-31
2022/03/01 01:18:09;;;;;;;15.65;7.80;;;4.90;99.90;;;;;;5037587;28;20025;-31
2022/03/01 01:20:35;;;;;;;17.33;7.57;;;5.00;99.90;;;;;;5052788;28;20342;-33
2022/03/01 01:23:01;;;;;;;15.55;7.00;;;5.00;99.90;;;;;;5050752;28;20029;-36
2022/03/01 01:25:27;;;;;;;16.95;7.80;;;4.90;99.90;;;;;;5041515;28;20025;-32
2022/03/01 01:27:55;;;;;;;15.60;8.00;;;4.90;99.90;;;;;;5035956;28;20573;-35
2022/03/01 01:30:24;;;;;;;13.73;7.25;;;4.90;99.90;;;;;;5049095;28;20029;-31
2022/03/01 01:32:50;;;;;;;16.75;8.10;;;5.00;99.90;;;;;;5038867;28;20082;-36
2022/03/01 01:35:19;;;;;;;18.13;7.32;;;5.00;99.90;;;;;;5052368;28;20082;-34
2022/03/01 01:37:44;;;;;;;17.60;8.07;;;5.00;99.90;;;;;;5028008;28;20474;-32
2022/03/01 01:40:14;;;;;;;17.10;8.13;;;5.00;99.90;;;;;;5028135;28;20085;-36
2022/03/01 01:42:40;;;;;;;16.55;7.90;;;5.00;99.90;;;;;;5034863;28;20022;-36
2022/03/01 01:45:06;;;;;;;20.17;8.63;;;4.90;99.90;;;;;;5034954;28;20087;-31
2022/03/01 01:47:32;;;;;;;18.15;7.50;;;4.90;99.90;;;;;;5028776;28;20502;-37
2022/03/01 01:49:58;;;;;;;17.45;7.57;;;4.80;99.90;;;;;;5011201;28;20038;-32
2022/03/01 01:52:25;;;;;;;19.52;8.15;;;4.80;99.90;;;;;;5016453;28;20037;-33
2022/03/01 01:54:52;;;;;;;21.37;7.90;;;4.70;99.90;;;;;;5032614;28;20104;-31
2022/03/01 01:57:20;;;;;;;13.32;6.90;;;4.80;99.90;;;;;;5021714;28;20057;-32
2022/03/01 01:59:47;;;;;;;13.90;7.45;;;4.80;99.90;;;;;;5014154;28;20471;-30
2022/03/01 02:02:15;;;;;;;17.10;7.32;;;4.80;99.90;;;;;;5027334;28;20059;-34
2022/03/01 02:04:41;;;;;;;17.77;7.68;;;4.70;99.90;;;;;;5012579;28;20018;-34
2022/03/01 02:07:07;;;;;;;16.55;7.30;;;4.70;99.90;;;;;;5013432;28;20116;-36
2022/03/01 02:09:33;;;;;;;15.55;7.82;;;4.70;99.90;;;;;;5021775;28;20129;-29
2022/03/01 02:11:59;;;;;;;15.25;7.55;;;4.70;99.90;;;;;;5031616;28;20501;-30
2022/03/01 02:14:25;;;;;;;15.45;7.30;;;4.80;99.90;;;;;;5044134;28;20037;-40
2022/03/01 02:16:51;;;;;;;16.17;8.32;;;4.80;99.90;;;;;;5050141;28;20091;-34
2022/03/01 02:19:17;;;;;;;16.77;7.60;;;4.80;99.90;;;;;;5051793;28;20470;-32
2022/03/01 02:21:50;;;;;;;17.58;7.90;;;4.80;99.90;;;;;;5053714;28;20393;-33
2022/03/01 02:24:19;;;;;;;14.60;7.13;;;4.70;99.90;;;;;;5043130;28;20025;-33
2022/03/01 02:26:45;;;;;;;12.80;7.32;;;4.70;99.90;;;;;;5025745;28;20029;-31
2022/03/01 02:29:11;;;;;;;13.55;7.25;;;4.70;99.90;;;;;;5039866;28;20057;-33
2022/03/01 02:31:37;;;;;;;14.18;7.43;;;4.70;99.90;;;;;;5035611;28;20026;-34
2022/03/01 02:34:04;;;;;;;19.27;7.55;;;4.80;99.90;;;;;;5035601;28;20036;-30
2022/03/01 02:36:30;;;;;;;12.88;6.80;;;4.90;99.90;;;;;;5033915;28;20064;-31
2022/03/01 02:38:56;;;;;;;18.67;7.25;;;4.90;99.90;;;;;;5048855;28;20033;-36
2022/03/01 02:41:23;;;;;;;21.45;6.80;;;4.80;99.90;;;;;;5044000;28;20108;-32
2022/03/01 02:43:48;;;;;;;15.48;7.28;;;4.70;99.90;;;;;;5042612;28;20021;-32
2022/03/01 02:46:14;;;;;;;15.70;7.05;;;4.70;99.90;;;;;;5045947;28;20120;-35
2022/03/01 02:48:39;;;;;;;15.88;6.97;;;4.70;99.90;;;;;;5044574;28;20033;-31
2022/03/01 02:51:05;;;;;;;16.27;6.63;;;4.80;99.90;;;;;;5036072;28;20460;-34
2022/03/01 02:53:31;;;;;;;16.90;7.93;;;4.70;99.90;;;;;;5041589;28;20104;-35
2022/03/01 02:55:56;;;;;;;15.45;7.22;;;4.70;99.90;;;;;;5019974;28;20034;-30
2022/03/01 02:58:22;;;;;;;14.82;7.63;;;4.60;99.90;;;;;;5041599;28;20055;-33
2022/03/01 03:00:48;;;;;;;15.50;6.97;;;4.60;99.90;;;;;;5036060;28;20022;-43
2022/03/01 03:03:14;;;;;;;14.63;6.40;;;4.60;99.90;;;;;;5049246;28;20033;-36
2022/03/01 03:05:40;;;;;;;12.90;6.78;;;4.60;99.90;;;;;;5054582;28;20029;-31
2022/03/01 03:08:07;;;;;;;14.93;7.45;;;4.50;99.90;;;;;;5041873;28;21642;-33
2022/03/01 03:10:33;;;;;;;15.50;7.50;;;4.50;99.90;;;;;;5015287;28;20022;-34
2022/03/01 03:13:00;;;;;;;16.30;7.30;;;4.50;99.90;;;;;;5032539;28;20025;-29
2022/03/01 03:15:27;;;;;;;15.73;7.95;;;4.50;99.90;;;;;;5034926;28;20048;-35
2022/03/01 03:17:53;;;;;;;14.25;6.97;;;4.60;99.90;;;;;;5038628;28;20420;-31
2022/03/01 03:20:19;;;;;;;14.25;6.70;;;4.60;99.90;;;;;;5044677;28;20108;-33
2022/03/01 03:22:44;;;;;;;19.98;7.60;;;4.60;99.90;;;;;;5037081;28;20563;-41
2022/03/01 03:25:10;;;;;;;12.98;6.43;;;4.70;99.90;;;;;;5033853;28;20113;-34
2022/03/01 03:27:36;;;;;;;13.77;7.45;;;4.70;99.90;;;;;;5020389;28;20410;-33
2022/03/01 03:30:03;;;;;;;13.38;6.38;;;4.70;99.90;;;;;;5050040;28;20032;-32
2022/03/01 03:32:29;;;;;;;18.58;6.55;;;4.80;99.90;;;;;;5015988;28;20045;-30
2022/03/01 03:34:54;;;;;;;18.35;7.68;;;4.80;99.90;;;;;;5040796;28;20032;-34
2022/03/01 03:37:20;;;;;;;17.90;6.97;;;4.90;99.90;;;;;;5047924;28;20040;-34
2022/03/01 03:39:46;;;;;;;16.58;7.45;;;4.80;99.90;;;;;;5054227;28;20021;-35
2022/03/01 03:42:11;;;;;;;11.98;6.25;;;4.80;99.90;;;;;;5050197;28;20033;-36
2022/03/01 03:44:38;;;;;;;18.60;6.65;;;4.70;99.90;;;;;;5027479;28;20036;-36
2022/03/01 03:47:04;;;;;;;17.33;6.65;;;4.70;99.90;;;;;;5043643;28;20028;-29
2022/03/01 03:49:29;;;;;;;18.27;7.68;;;4.60;99.90;;;;;;5034132;28;20029;-31
2022/03/01 03:51:55;;;;;;;14.82;7.38;;;4.60;99.90;;;;;;5034481;28;20045;-36
2022/03/01 03:54:21;;;;;;;15.85;7.85;;;4.60;99.90;;;;;;5031347;28;20625;-33
2022/03/01 03:56:46;;;;;;;14.43;6.80;;;4.60;99.90;;;;;;5032392;28;20070;-30
2022/03/01 03:59:12;;;;;;;13.38;6.43;;;4.60;99.90;;;;;;5053761;28;20033;-32
2022/03/01 04:01:38;;;;;;;12.52;6.70;;;4.60;99.90;;;;;;5020617;28;20533;-29
2022/03/01 04:04:04;;;;;;;16.77;6.55;;;4.60;99.90;;;;;;5039675;28;20025;-32
2022/03/01 04:06:29;;;;;;;14.00;7.40;;;4.60;99.90;;;;;;5046617;28;20377;-31
2022/03/01 04:08:55;;;;;;;13.00;6.75;;;4.60;99.90;;;;;;5033810;28;20030;-32
2022/03/01 04:11:21;;;;;;;14.80;7.32;;;4.50;99.90;;;;;;5036150;28;20026;-38
2022/03/01 04:13:46;;;;;;;13.57;6.63;;;4.60;99.90;;;;;;5051381;28;20020;-30
2022/03/01 04:16:12;;;;;;;18.05;7.70;;;4.60;99.90;;;;;;5049301;28;20064;-32
2022/03/01 04:18:38;;;;;;;14.48;6.57;;;4.60;99.90;;;;;;5040477;28;20034;-32
2022/03/01 04:21:07;;;;;;;16.10;6.97;;;4.70;99.90;;;;;;5035403;28;20036;-38
2022/03/01 04:23:32;;;;;;;17.52;7.32;;;4.90;99.90;;;;;;5042176;28;20030;-32
2022/03/01 04:25:58;;;;;;;13.90;7.53;;;4.90;99.90;;;;;;5049052;28;20388;-29
2022/03/01 04:28:23;;;;;;;14.15;7.10;;;4.80;99.90;;;;;;5040364;28;20025;-40
2022/03/01 04:30:49;;;;;;;14.48;6.25;;;4.80;99.90;;;;;;5034267;28;20045;-35
2022/03/01 04:33:15;;;;;;;17.73;7.38;;;4.80;99.90;;;;;;5034461;28;20025;-31
2022/03/01 04:35:40;;;;;;;16.45;6.70;;;4.80;99.90;;;;;;5039997;28;20025;-37
2022/03/01 04:38:07;;;;;;;12.88;6.25;;;4.70;99.90;;;;;;5042032;28;20024;-31
2022/03/01 04:40:32;;;;;;;12.10;5.88;;;4.70;99.90;;;;;;5029821;28;20029;-35
2022/03/01 04:42:58;;;;;;;16.15;7.40;;;4.70;99.90;;;;;;5034507;28;20040;-34
2022/03/01 04:45:24;;;;;;;13.05;6.35;;;4.70;99.90;;;;;;5032234;28;20029;-33
2022/03/01 04:47:49;;;;;;;13.57;6.78;;;4.90;99.90;;;;;;5043262;28;20025;-30
2022/03/01 04:50:15;;;;;;;14.07;6.22;;;4.90;99.90;;;;;;5052575;28;20021;-34
2022/03/01 04:52:41;;;;;;;12.52;6.10;;;4.90;99.90;;;;;;5051486;28;20025;-33
2022/03/01 04:55:08;;;;;;;14.43;6.75;;;4.80;99.90;;;;;;5015745;28;20556;-34
2022/03/01 04:57:33;;;;;;;11.65;6.60;;;4.60;99.90;;;;;;5030859;28;20102;-37
2022/03/01 05:00:00;;;;;;;14.55;6.63;;;4.50;99.90;;;;;;5034352;28;20021;-32
2022/03/01 05:02:26;;;;;;;15.95;7.15;;;4.50;99.90;;;;;;5041838;28;20526;-32
2022/03/01 05:04:51;;;;;;;13.93;6.70;;;4.50;99.90;;;;;;5037701;28;20029;-34
2022/03/01 05:07:18;;;;;;;12.98;6.13;;;4.50;99.90;;;;;;5043545;28;20038;-29
2022/03/01 05:09:43;;;;;;;13.70;6.13;;;4.50;99.90;;;;;;5042339;28;20056;-36
2022/03/01 05:12:09;;;;;;;15.73;6.78;;;4.60;99.90;;;;;;5050970;28;20052;-41
2022/03/01 05:14:35;;;;;;;12.32;6.18;;;4.60;99.90;;;;;;5026026;28;20028;-38
2022/03/01 05:17:01;;;;;;;20.27;7.45;;;4.60;99.90;;;;;;5033086;28;20101;-31
2022/03/01 05:19:26;;;;;;;20.75;7.13;;;4.70;99.90;;;;;;5016237;28;20045;-33
2022/03/01 05:21:52;;;;;;;12.20;6.95;;;4.70;99.90;;;;;;5012886;28;20037;-31
2022/03/01 05:24:17;;;;;;;16.95;8.27;;;4.70;99.90;;;;;;5049625;28;20425;-34
2022/03/01 05:26:44;;;;;;;14.73;6.38;;;4.80;99.90;;;;;;5041906;28;20116;-31
2022/03/01 05:29:10;;;;;;;17.88;7.38;;;4.70;99.90;;;;;;5045529;28;20033;-34
2022/03/01 05:31:35;;;;;;;22.42;7.35;;;4.70;99.90;;;;;;5049681;28;20416;-32
2022/03/01 05:34:01;;;;;;;14.98;6.90;;;4.70;99.90;;;;;;5033607;28;20048;-37
2022/03/01 05:36:27;;;;;;;16.10;6.57;;;4.70;99.90;;;;;;5046293;28;20037;-33
2022/03/01 05:38:52;;;;;;;16.50;6.38;;;4.70;99.90;;;;;;5035493;28;20463;-31
2022/03/01 05:41:20;;;;;;;15.88;7.13;;;4.70;99.90;;;;;;5044132;28;20108;-33
2022/03/01 05:43:45;;;;;;;11.02;4.78;;;4.80;99.90;;;;;;5044766;28;20030;-34
2022/03/01 05:46:11;;;;;;;15.52;7.18;;;4.90;99.90;;;;;;5042304;28;20363;-33
2022/03/01 05:48:37;;;;;;;12.43;6.10;;;4.90;99.90;;;;;;5053059;28;20033;-33
2022/03/01 05:51:04;;;;;;;17.27;7.05;;;4.90;99.90;;;;;;5040642;28;20060;-34
2022/03/01 05:53:29;;;;;;;12.57;6.93;;;4.80;99.90;;;;;;5036324;28;20564;-30
2022/03/01 05:55:55;;;;;;;16.90;6.35;;;4.80;99.90;;;;;;5037421;28;20159;-46
2022/03/01 05:58:21;;;;;;;15.82;7.07;;;4.70;99.90;;;;;;5031941;28;20079;-33
2022/03/01 06:00:46;;;;;;;15.07;7.30;;;4.70;99.90;;;;;;5040179;28;20492;-35
2022/03/01 06:03:12;;;;;;;17.52;6.85;;;4.70;99.90;;;;;;5038548;28;20044;-38
2022/03/01 06:05:37;;;;;;;12.30;6.28;;;4.80;99.90;;;;;;5045634;28;20028;-32
2022/03/01 06:08:03;;;;;;;13.60;6.95;;;4.90;99.90;;;;;;5044190;28;20029;-30
2022/03/01 06:10:29;;;;;;;12.88;6.65;;;5.00;99.90;;;;;;5054373;28;20029;-30
2022/03/01 06:12:55;;;;;;;13.13;6.70;;;5.10;99.90;;;;;;5053439;28;20123;-31
2022/03/01 06:15:21;;;;;;;15.30;7.00;;;5.10;99.90;;;;;;5049102;28;20041;-29
2022/03/01 06:17:47;;;;;;;15.23;7.50;;;5.00;99.90;;;;;;5036843;28;20037;-61
2022/03/01 06:20:12;;;;;;;10.02;6.22;;;4.90;99.90;;;;;;5035772;28;20029;-33
2022/03/01 06:22:40;;;;;;;17.95;7.18;;;4.90;99.90;;;;;;5031223;28;20108;-37
2022/03/01 06:25:07;;;;;;;13.93;7.05;;;4.90;99.90;;;;;;5053075;28;20017;-34
2022/03/01 06:27:36;;;;;;;13.18;6.65;;;5.00;99.90;;;;;;5055592;28;20059;-33
2022/03/01 06:30:04;;;;;;;12.35;6.60;;;4.90;99.90;;;;;;5039512;28;20033;-30
2022/03/01 06:32:30;;;;;;;15.32;7.30;;;4.80;99.90;;;;;;5045635;28;20477;-31
2022/03/01 06:34:55;;;;;;;12.82;6.30;;;4.80;99.90;;;;;;5042907;28;20056;-32
2022/03/01 06:37:22;;;;;;;19.42;7.65;;;4.80;99.90;;;;;;5035307;28;20026;-31
2022/03/01 06:39:50;;;;;;;14.02;6.15;;;4.80;99.90;;;;;;5042649;28;20100;-36
2022/03/01 06:42:16;;;;;;;19.58;7.28;;;4.80;99.90;;;;;;5030760;28;20033;-46
2022/03/01 06:44:42;;;;;;;18.25;7.18;;;4.90;99.90;;;;;;5037504;28;20032;-30
2022/03/01 06:47:08;;;;;;;16.13;6.38;;;4.90;99.90;;;;;;5051512;28;20101;-31
2022/03/01 06:49:34;;;;;;;13.35;6.43;;;5.00;99.90;;;;;;5036552;28;20064;-32
2022/03/01 06:51:59;;;;;;;13.43;6.50;;;5.10;99.90;;;;;;5017283;28;20520;-35
2022/03/01 06:54:25;;;;;;;19.38;7.00;;;5.10;99.90;;;;;;5036068;28;20482;-34
2022/03/01 06:56:51;;;;;;;15.80;7.35;;;5.20;99.90;;;;;;5031711;28;20556;-30
2022/03/01 06:59:16;;;;;;;19.90;7.25;;;5.20;99.90;;;;;;5022200;28;20030;-31
2022/03/01 07:01:42;;;;;;;14.55;6.78;;;5.30;99.90;;;;;;5024999;28;20064;-32
2022/03/01 07:04:08;;;;;;;16.52;7.18;;;5.40;99.90;;;;;;5033263;28;20465;-30
2022/03/01 07:09:18;;;;;;;15.25;6.30;;;5.40;99.90;;;;;;5034571;28;20053;-32
2022/03/01 07:11:44;;;;;;;20.15;7.13;;;5.50;99.90;;;;;;5034671;28;20022;-32
2022/03/01 07:14:09;;;;;;;13.38;6.72;;;5.60;99.90;;;;;;5035569;28;20025;-32
2022/03/01 07:16:35;;;;;;;12.93;6.15;;;5.60;99.90;;;;;;5054390;28;20021;-33
2022/03/01 07:19:00;;;;;;;14.63;6.80;;;5.70;99.90;;;;;;5052969;28;20021;-32
2022/03/01 07:21:26;;;;;;;12.95;6.25;;;5.70;99.90;;;;;;5036954;28;20508;-35
2022/03/01 07:23:51;;;;;;;12.45;6.97;;;5.70;99.90;;;;;;5024222;28;20104;-30
2022/03/01 07:26:17;;;;;;;12.27;5.95;;;5.70;99.90;;;;;;5033699;28;20079;-32
2022/03/01 07:28:43;;;;;;;17.40;6.07;;;5.70;99.90;;;;;;5031726;28;20033;-30
2022/03/01 07:31:09;;;;;;;14.80;7.00;;;5.80;99.90;;;;;;5031172;28;20033;-31
2022/03/01 07:33:34;;;;;;;14.85;6.18;;;5.70;99.90;;;;;;5034011;28;20021;-31
2022/03/01 07:36:00;;;;;;;14.07;7.10;;;5.80;99.90;;;;;;5014187;28;20113;-31
2022/03/01 07:38:26;;;;;;;12.32;5.68;;;5.80;99.90;;;;;;5026589;28;20401;-34
2022/03/01 07:40:51;;;;;;;12.23;6.70;;;5.80;99.90;;;;;;5024147;28;20095;-33
2022/03/01 07:43:17;;;;;;;17.95;8.60;;;5.90;99.90;;;;;;5014644;28;20034;-34
2022/03/01 07:45:42;;;;;;;17.02;7.45;;;5.90;99.90;;;;;;5015615;28;20022;-30
2022/03/01 07:48:10;;;;;;;16.98;7.53;;;6.00;99.90;;;;;;5024563;28;20029;-38
2022/03/01 07:50:36;;;;;;;19.40;8.68;;;6.00;99.90;;;;;;5027367;28;20087;-33
2022/03/01 07:53:02;;;;;;;16.90;7.53;;;6.10;99.90;;;;;;5008441;28;20034;-29
2022/03/01 07:55:29;;;;;;;15.75;7.25;;;6.20;99.90;;;;;;5031845;28;20033;-33
2022/03/01 07:57:55;;;;;;;23.38;7.78;;;6.20;99.90;;;;;;5029181;28;20516;-32
2022/03/01 08:00:23;;;;;;;15.02;6.20;;;6.30;99.90;;;;;;5022594;28;20030;-34
2022/03/01 08:02:49;;;;;;;17.23;6.43;;;6.40;99.90;;;;;;5036732;28;20528;-32
2022/03/01 08:05:15;;;;;;;18.88;7.18;;;6.40;99.90;;;;;;5030461;28;20037;-33
2022/03/01 08:07:40;;;;;;;15.43;6.65;;;6.50;99.90;;;;;;5044444;28;20022;-31
2022/03/01 08:10:07;;;;;;;12.95;7.53;;;6.60;99.90;;;;;;5033746;28;20032;-34
2022/03/01 08:12:32;;;;;;;19.95;8.52;;;6.70;99.90;;;;;;5020125;28;20058;-32
2022/03/01 08:14:58;;;;;;;14.07;7.13;;;6.70;99.90;;;;;;5028912;28;20032;-32
2022/03/01 08:17:23;;;;;;;18.48;7.68;;;6.90;99.90;;;;;;5030394;28;20033;-30
2022/03/01 08:19:49;;;;;;;15.43;6.95;;;6.90;99.90;;;;;;5028723;28;20075;-30
2022/03/01 08:22:15;;;;;;;12.45;7.00;;;6.90;99.90;;;;;;5031358;28;20109;-29
2022/03/01 08:24:41;;;;;;;15.88;8.05;;;7.00;99.90;;;;;;5035438;28;20040;-36
2022/03/01 08:27:07;;;;;;;12.35;6.68;;;7.10;99.90;;;;;;5033355;28;20017;-36
2022/03/01 08:29:33;;;;;;;14.13;7.28;;;7.20;99.90;;;;;;5028415;28;20444;-31
2022/03/01 08:32:00;;;;;;;17.48;7.60;;;7.40;99.90;;;;;;5017890;28;20385;-34
2022/03/01 08:34:26;;;;;;;20.85;7.88;;;7.30;99.90;;;;;;5038854;28;20102;-30
2022/03/01 08:36:52;;;;;;;14.10;7.32;;;7.40;99.90;;;;;;5052530;28;20035;-30
2022/03/01 08:39:18;;;;;;;12.68;7.80;;;7.40;99.90;;;;;;5052947;28;20028;-30
2022/03/01 08:41:43;;;;;;;19.20;8.55;;;7.40;99.90;;;;;;5043042;28;20025;-35
2022/03/01 08:44:09;;;;;;;13.10;7.65;;;7.30;99.90;;;;;;5031244;28;20021;-30
2022/03/01 08:46:35;;;;;;;17.13;8.10;;;7.20;99.90;;;;;;5025296;28;20030;-33
2022/03/01 08:49:00;;;;;;;16.52;7.88;;;7.10;99.90;;;;;;5027844;28;20029;-30
2022/03/01 08:51:26;;;;;;;15.05;7.47;;;7.10;99.90;;;;;;5031631;28;20036;-34
2022/03/01 08:53:53;;;;;;;15.52;7.63;;;7.10;99.90;;;;;;5028488;28;20028;-30
2022/03/01 08:56:20;;;;;;;16.30;8.05;;;7.10;99.90;;;;;;5021662;28;20469;-34
2022/03/01 08:58:47;;;;;;;16.55;7.57;;;7.10;99.90;;;;;;5032804;28;20022;-31
2022/03/01 09:01:14;;;;;;;12.65;6.50;;;7.10;99.90;;;;;;5032613;28;20045;-38
2022/03/01 09:03:39;;;;;;;20.55;8.13;;;7.10;99.90;;;;;;5018789;28;20022;-30
2022/03/01 09:06:06;;;;;;;12.80;6.65;;;7.10;99.90;;;;;;5012945;28;20153;-35
2022/03/01 09:08:33;;;;;;;22.90;7.65;;;7.20;99.90;;;;;;5021659;28;20079;-35
2022/03/01 09:10:59;;;;;;;20.33;7.60;;;7.10;99.90;;;;;;5032887;28;20029;-31
2022/03/01 09:13:24;;;;;;;15.15;8.30;;;7.20;99.90;;;;;;5014759;28;20488;-31
2022/03/01 09:15:50;;;;;;;22.48;8.18;;;7.10;99.90;;;;;;5032049;28;20105;-38
2022/03/01 09:18:16;;;;;;;18.75;8.80;;;7.10;99.90;;;;;;5030225;28;20402;-30
2022/03/01 09:20:41;;;;;;;14.70;7.82;;;7.10;99.90;;;;;;5030311;28;20029;-36
2022/03/01 09:23:07;;;;;;;15.48;7.78;;;7.10;99.90;;;;;;5028773;28;20029;-32
2022/03/01 09:25:33;;;;;;;18.30;8.13;;;7.10;99.90;;;;;;5029144;28;20033;-33
2022/03/01 09:27:59;;;;;;;19.60;8.65;;;7.10;99.90;;;;;;5027097;28;20368;-30
2022/03/01 09:30:24;;;;;;;15.63;8.05;;;7.10;99.90;;;;;;5029319;28;20029;-33
2022/03/01 09:32:50;;;;;;;25.92;9.82;;;7.10;99.90;;;;;;5021098;28;20107;-29
2022/03/01 09:35:17;;;;;;;19.13;9.52;;;7.10;99.90;;;;;;5031014;28;20029;-31
2022/03/01 09:37:43;;;;;;;16.30;8.40;;;7.10;99.90;;;;;;5029656;28;20124;-33
2022/03/01 09:40:11;;;;;;;16.73;8.93;;;7.20;99.90;;;;;;5022304;28;20041;-33
2022/03/01 09:42:37;;;;;;;;;;;7.20;99.90;;;;;;5032863;28;20032;-30
2022/03/01 09:45:03;;;;;;;21.80;8.95;;;7.30;99.90;;;;;;5023340;28;19914;-31
2022/03/01 09:47:29;;;;;;;18.15;9.07;;;7.30;99.90;;;;;;5028450;28;20104;-32
2022/03/01 09:49:55;;;;;;;17.95;7.72;;;7.30;99.90;;;;;;5029875;28;20014;-30
2022/03/01 09:52:21;;;;;;;20.55;8.25;;;7.40;99.90;;;;;;5012666;28;20032;-34
2022/03/01 09:54:50;;;;;;;20.27;8.73;;;7.50;99.90;;;;;;5013013;28;20030;-36
2022/03/01 09:57:17;;;;;;;21.30;8.68;;;7.50;99.90;;;;;;5012520;28;20032;-35
2022/03/01 09:59:43;;;;;;;19.60;8.77;;;7.50;99.90;;;;;;5016141;28;20585;-30
2022/03/01 10:02:09;;;;;;;20.92;8.00;;;7.50;99.90;;;;;;5031983;28;20033;-31
2022/03/01 10:04:49;;;;;;;15.57;8.45;;;7.50;99.90;;;;;;5032416;28;20024;-32
2022/03/01 10:07:24;;;;;;;24.70;7.97;;;7.50;99.90;;;;;;5032133;28;20026;-30
2022/03/01 10:09:50;;;;;;;15.25;8.02;;;7.60;99.90;;;;;;5032132;28;20018;-30
2022/03/01 10:12:26;;;;;;;24.13;10.65;;;7.60;99.90;;;;;;5031598;28;20116;-36
2022/03/01 10:14:59;;;;;;;19.63;10.13;;;7.70;99.90;;;;;;5032063;28;20028;-32
2022/03/01 10:17:33;;;;;;;26.20;12.18;;;7.70;99.90;;;;;;5032090;28;20033;-33
2022/03/01 10:20:10;;;;;;;25.05;10.82;;;7.70;99.90;;;;;;5032226;28;20029;-34
2022/03/01 10:22:47;;;;;;;20.58;8.98;;;7.80;99.90;;;;;;5032233;28;20354;-33
2022/03/01 10:25:15;;;;;;;24.48;9.52;;;7.80;99.90;;;;;;5031982;28;20235;-33
2022/03/01 10:27:44;;;;;;;18.38;9.02;;;7.90;99.90;;;;;;5026325;28;20022;-37
2022/03/01 10:30:10;;;;;;;17.52;9.15;;;7.90;99.90;;;;;;5021097;28;20533;-30
2022/03/01 10:32:36;;;;;;;17.08;9.55;;;7.80;99.90;;;;;;5031271;28;20032;-36
2022/03/01 10:35:07;;;;;;;22.27;8.75;;;7.80;99.90;;;;;;5031303;28;20017;-39
2022/03/01 10:37:35;;;;;;;21.67;9.27;;;7.80;99.90;;;;;;5019591;28;20557;-34
2022/03/01 10:40:22;;;;;;;23.33;9.48;;;7.80;99.90;;;;;;5034609;28;20048;-36
2022/03/01 10:43:09;;;;;;;17.77;9.57;;;7.90;99.90;;;;;;5033449;28;20482;-34
2022/03/01 10:45:44;;;;;;;20.13;9.25;;;8.00;99.90;;;;;;5028691;28;20068;-33
2022/03/01 10:48:12;;;;;;;19.92;8.40;;;7.90;99.90;;;;;;5023256;28;20026;-30
2022/03/01 10:50:39;;;;;;;20.02;9.10;;;7.90;99.90;;;;;;5034551;28;20444;-32
2022/03/01 10:53:06;;;;;;;21.57;9.13;;;7.80;99.90;;;;;;5028893;28;20474;-31
2022/03/01 10:55:34;;;;;;;16.95;8.70;;;7.80;99.90;;;;;;5019571;28;20497;-31
2022/03/01 10:58:05;;;;;;;;;;;7.70;99.90;;;;;;5026906;28;20022;-33
2022/03/01 11:00:32;;;;;;;17.80;9.25;;;7.70;99.90;;;;;;5030223;28;19956;-33
2022/03/01 11:02:58;;;;;;;20.65;11.07;;;7.70;99.90;;;;;;5033564;28;20042;-37
2022/03/01 11:05:28;;;;;;;23.40;9.63;;;7.70;99.90;;;;;;5033484;28;20488;-45
2022/03/01 11:07:54;;;;;;;19.55;10.57;;;7.60;99.90;;;;;;5026226;28;20026;-32
2022/03/01 11:10:22;;;;;;;18.95;9.50;;;7.60;99.90;;;;;;5033831;28;20083;-33
2022/03/01 11:12:52;;;;;;;11.18;6.82;;;7.60;99.90;;;;;;5021059;28;20108;-39
2022/03/01 11:15:58;;;;;;;24.05;10.68;;;7.50;99.90;;;;;;5020086;28;20089;-39
2022/03/01 11:18:40;;;;;;;19.83;9.68;;;7.60;99.90;;;;;;5031818;28;20036;-34
2022/03/01 11:21:07;;;;;;;30.55;10.52;;;7.60;99.90;;;;;;5025762;28;20014;-37
2022/03/01 11:23:34;;;;;;;26.13;10.68;;;7.60;99.90;;;;;;5014875;28;20475;-33
2022/03/01 11:26:13;;;;;;;20.45;10.02;;;7.70;99.90;;;;;;5027794;28;20053;-30
2022/03/01 11:28:40;;;;;;;19.75;9.98;;;7.70;99.90;;;;;;5034864;28;20485;-33
2022/03/01 11:31:27;;;;;;;24.65;10.68;;;7.70;99.90;;;;;;5034347;28;20093;-31
2022/03/01 11:34:20;;;;;;;14.47;7.23;;;7.80;99.90;;;;;;5034451;28;20026;-36
2022/03/01 11:36:55;;;;;;;21.63;10.93;;;7.80;99.90;;;;;;5031806;28;20260;-34
2022/03/01 11:39:28;;;;;;;23.13;10.77;;;7.90;99.90;;;;;;5014586;28;20026;-34
2022/03/01 11:42:08;;;;;;;27.42;10.93;;;8.00;99.90;;;;;;5014362;28;20030;-37
2022/03/01 11:44:36;;;;;;;21.48;11.45;;;8.00;99.90;;;;;;5014485;28;20105;-33
2022/03/01 11:47:07;;;;;;;20.70;10.60;;;8.10;99.90;;;;;;5014009;28;20022;-35
2022/03/01 11:49:40;;;;;;;17.88;9.68;;;8.20;99.90;;;;;;5014500;28;20462;-31
2022/03/01 11:52:19;;;;;;;20.33;10.75;;;8.40;99.90;;;;;;5014917;28;20092;-34
2022/03/01 11:54:47;;;;;;;25.20;10.73;;;8.50;99.90;;;;;;5014361;28;20099;-31
2022/03/01 11:57:13;;;;;;;;;;;8.60;99.90;;;;;;5014483;28;20033;-32
2022/03/01 11:59:40;;;;;;;22.15;10.25;;;8.80;99.90;;;;;;5028455;28;20374;-32
2022/03/01 12:02:10;;;;;;;23.23;11.02;;;8.90;99.90;;;;;;5026282;28;20048;-31
2022/03/01 12:04:51;;;;;;;18.60;10.05;;;9.10;99.90;;;;;;5054748;28;20490;-37
2022/03/01 12:07:23;;;;;;;19.35;10.82;;;9.20;99.90;;;;;;5046839;28;20060;-37
2022/03/01 12:10:00;;;;;;;25.00;10.82;;;9.40;99.90;;;;;;5042229;28;20087;-31
2022/03/01 12:12:34;;;;;;;19.13;10.90;;;9.40;99.90;;;;;;5040961;28;20041;-33
2022/03/01 12:15:01;;;;;;;20.67;10.10;;;9.30;99.90;;;;;;5032541;28;20109;-37
2022/03/01 12:17:27;;;;;;;23.60;10.88;;;9.40;99.90;;;;;;5048010;28;20032;-32
2022/03/01 12:20:00;;;;;;;22.17;10.40;;;9.50;99.90;;;;;;5048453;28;20029;-35
2022/03/01 12:22:25;;;;;;;23.42;10.77;;;9.60;99.90;;;;;;5049070;28;20091;-34
2022/03/01 12:24:51;;;;;;;23.80;10.90;;;9.70;99.90;;;;;;5046856;28;20127;-35
2022/03/01 12:27:18;;;;;;;22.23;10.25;;;9.90;99.90;;;;;;5047480;28;20385;-31
2022/03/01 12:29:47;;;;;;;24.43;10.60;;;10.10;99.90;;;;;;5047524;28;20025;-33
2022/03/01 12:32:18;;;;;;;19.85;10.27;;;10.10;99.90;;;;;;5045304;28;20485;-34
2022/03/01 12:34:43;;;;;;;27.23;11.90;;;9.90;99.90;;;;;;5037155;28;20064;-36
2022/03/01 12:37:14;;;;;;;27.55;11.57;;;9.90;99.90;;;;;;5049746;28;20029;-34
2022/03/01 12:39:40;;;;;;;29.17;13.48;;;9.80;99.90;;;;;;5040124;28;20490;-36
2022/03/01 12:42:07;;;;;;;24.55;12.05;;;9.70;99.90;;;;;;5029563;28;20052;-37
2022/03/01 12:44:36;;;;;;;25.50;11.32;;;9.70;99.90;;;;;;5029829;28;20025;-38
2022/03/01 12:47:04;;;;;;;30.02;11.10;;;9.60;99.90;;;;;;5029426;28;20022;-34